Time;durP1;ratioP1;P1;durP2;ratioP2;P2;SDS_P1;SDS_P2;PMS_P1;PMS_P2;Temp;Humidity;BMP_temperature;BMP_pressure;BME280_temperature;BME280_humidity;BME280_pressure;Samples;Min_cycle;Max_cycle;Signal;HPM_P1;HPM_P2
2021/06/04 00:00:30;;;;;;;1.40;1.13;;;20.90;99.90;;;;;;4976672;28;21017;-78
2021/06/04 00:03:05;;;;;;;1.20;1.00;;;20.80;99.90;;;;;;4975968;28;20202;-78
2021/06/04 00:05:35;;;;;;;0.80;0.70;;;20.80;99.90;;;;;;4955069;28;20432;-76
2021/06/04 00:08:01;;;;;;;1.73;1.50;;;20.80;99.90;;;;;;4954280;28;20440;-78
2021/06/04 00:10:38;;;;;;;0.93;0.80;;;20.90;99.90;;;;;;4956153;28;20499;-77
2021/06/04 00:13:12;;;;;;;1.37;1.27;;;20.90;99.90;;;;;;4970296;28;20443;-79
2021/06/04 00:15:38;;;;;;;1.83;1.33;;;20.90;99.90;;;;;;4960120;28;20465;-79
2021/06/04 00:18:04;;;;;;;2.40;1.17;;;20.90;99.90;;;;;;4977690;28;20436;-77
2021/06/04 00:20:29;;;;;;;3.30;1.10;;;20.90;99.90;;;;;;4959465;28;20763;-78
2021/06/04 00:22:55;;;;;;;0.90;0.80;;;20.90;99.90;;;;;;4976833;28;20181;-79
2021/06/04 00:25:21;;;;;;;2.20;1.57;;;21.00;99.90;;;;;;4975344;28;20182;-78
2021/06/04 00:27:47;;;;;;;0.83;0.77;;;21.00;99.90;;;;;;4959089;28;20181;-78
2021/06/04 00:30:14;;;;;;;1.20;0.67;;;21.00;99.90;;;;;;4959830;28;20492;-78
2021/06/04 00:32:40;;;;;;;1.40;1.20;;;21.00;99.90;;;;;;4977196;28;20510;-77
2021/06/04 00:35:08;;;;;;;1.10;0.93;;;21.00;99.90;;;;;;4975043;28;20433;-78
2021/06/04 00:37:34;;;;;;;1.00;0.80;;;21.00;99.90;;;;;;4959789;28;20436;-79
2021/06/04 00:40:00;;;;;;;1.00;0.90;;;21.00;99.90;;;;;;4974390;28;20551;-78
2021/06/04 00:42:29;;;;;;;0.80;0.70;;;21.00;99.90;;;;;;4975622;28;20201;-78
2021/06/04 00:44:58;;;;;;;0.80;0.70;;;20.80;99.90;;;;;;4976800;28;20186;-78
2021/06/04 00:47:24;;;;;;;1.47;0.90;;;20.80;99.90;;;;;;4992751;28;20471;-78
2021/06/04 00:49:49;;;;;;;1.17;0.80;;;20.70;99.90;;;;;;4978859;28;20976;-79
2021/06/04 00:52:22;;;;;;;1.10;0.80;;;20.60;99.90;;;;;;4960870;28;20456;-79
2021/06/04 00:54:49;;;;;;;1.27;0.97;;;20.60;99.90;;;;;;4993499;28;20180;-79
2021/06/04 00:57:15;;;;;;;2.20;1.40;;;20.40;99.90;;;;;;4994193;28;20503;-79
2021/06/04 00:59:43;;;;;;;1.90;1.30;;;20.30;99.90;;;;;;4993455;28;20461;-79
2021/06/04 01:02:12;;;;;;;1.00;0.80;;;20.30;99.90;;;;;;4993347;28;20429;-79
2021/06/04 01:04:38;;;;;;;0.90;0.80;;;20.30;99.90;;;;;;4959296;28;20457;-79
2021/06/04 01:07:13;;;;;;;1.50;1.40;;;20.30;99.90;;;;;;4976711;28;20421;-79
2021/06/04 01:10:03;;;;;;;1.13;0.70;;;20.30;99.90;;;;;;4978166;28;20452;-79
2021/06/04 01:12:52;;;;;;;1.70;0.80;;;20.40;99.90;;;;;;4977270;28;20961;-78
2021/06/04 01:15:51;;;;;;;2.73;1.23;;;20.50;99.90;;;;;;4975624;28;20417;-78
2021/06/04 01:18:37;;;;;;;1.00;0.83;;;20.50;99.90;;;;;;4992165;28;20437;-79
2021/06/04 01:21:08;;;;;;;2.27;1.93;;;20.60;99.90;;;;;;4978739;28;20439;-79
2021/06/04 01:24:12;;;;;;;2.10;1.90;;;20.60;99.90;;;;;;4993279;28;20428;-78
2021/06/04 01:26:45;;;;;;;1.27;1.17;;;20.60;99.90;;;;;;4919205;29;20482;-78
2021/06/04 01:29:16;;;;;;;1.23;1.13;;;20.70;99.90;;;;;;4967824;28;20449;-79
2021/06/04 01:31:48;;;;;;;1.83;0.90;;;20.60;99.90;;;;;;4978335;28;20461;-79
2021/06/04 01:34:16;;;;;;;3.23;1.70;;;20.60;99.90;;;;;;4977857;28;20464;-79
2021/06/04 01:36:47;;;;;;;1.50;1.20;;;20.70;99.90;;;;;;4960750;28;20425;-79
2021/06/04 01:39:20;;;;;;;2.47;1.63;;;20.70;99.90;;;;;;4961415;28;20444;-79
2021/06/04 01:41:48;;;;;;;1.73;1.63;;;20.70;99.90;;;;;;4981347;28;20428;-79
2021/06/04 01:44:28;;;;;;;3.37;1.37;;;20.70;99.90;;;;;;4965212;28;20443;-78
2021/06/04 01:47:01;;;;;;;1.37;1.20;;;20.80;99.90;;;;;;4964071;28;20461;-78
2021/06/04 01:49:33;;;;;;;1.23;1.07;;;20.80;99.90;;;;;;4974267;28;20441;-79
2021/06/04 01:52:07;;;;;;;1.37;1.27;;;20.80;99.90;;;;;;4965683;28;20460;-79
2021/06/04 01:54:41;;;;;;;2.13;1.60;;;20.80;99.90;;;;;;4982312;28;20419;-79
2021/06/04 01:57:12;;;;;;;1.13;1.03;;;20.70;99.90;;;;;;4964782;28;20409;-78
2021/06/04 01:59:42;;;;;;;1.63;1.37;;;20.70;99.90;;;;;;4964923;28;20500;-80
2021/06/04 02:02:09;;;;;;;1.17;0.90;;;20.70;99.90;;;;;;4965342;28;20424;-77
2021/06/04 02:04:40;;;;;;;2.10;1.80;;;20.70;99.90;;;;;;4979359;28;20464;-78
2021/06/04 02:07:09;;;;;;;1.13;0.80;;;20.70;99.90;;;;;;4978287;28;20507;-80
2021/06/04 02:09:36;;;;;;;1.23;1.13;;;20.70;99.90;;;;;;4978538;28;20988;-79
2021/06/04 02:12:02;;;;;;;1.00;0.90;;;20.60;99.90;;;;;;4977377;28;20539;-79
2021/06/04 02:14:32;;;;;;;2.23;2.07;;;20.60;99.90;;;;;;4963313;28;20425;-80
2021/06/04 02:17:25;;;;;;;1.60;1.50;;;20.60;99.90;;;;;;4963501;28;20510;-79
2021/06/04 02:20:08;;;;;;;1.37;1.27;;;20.40;99.90;;;;;;4962795;28;20460;-78
2021/06/04 02:23:10;;;;;;;2.50;1.43;;;20.40;99.90;;;;;;4986003;28;20784;-78
2021/06/04 02:25:57;;;;;;;1.50;1.40;;;20.30;99.90;;;;;;4994949;28;20431;-79
2021/06/04 02:28:31;;;;;;;2.80;1.20;;;20.20;99.90;;;;;;4962413;28;20528;-79
2021/06/04 02:31:06;;;;;;;1.67;1.17;;;20.20;99.90;;;;;;4980395;28;20469;-79
2021/06/04 02:33:39;;;;;;;1.60;1.30;;;20.20;99.90;;;;;;4964035;28;20483;-79
2021/06/04 02:36:09;;;;;;;1.37;1.10;;;20.20;99.90;;;;;;4979441;28;20432;-79
2021/06/04 02:38:58;;;;;;;1.27;1.17;;;20.20;99.90;;;;;;4980494;28;20539;-79
2021/06/04 02:41:34;;;;;;;1.10;1.00;;;20.20;99.90;;;;;;4979937;28;20440;-79
2021/06/04 02:44:08;;;;;;;1.30;1.07;;;20.10;99.90;;;;;;4962922;28;20433;-77
2021/06/04 02:46:38;;;;;;;1.80;1.63;;;20.10;99.90;;;;;;4980301;28;20427;-79
2021/06/04 02:49:07;;;;;;;1.20;1.00;;;20.20;99.90;;;;;;4959575;28;20453;-79
2021/06/04 02:51:59;;;;;;;1.63;1.53;;;20.00;99.90;;;;;;4995422;28;20472;-79
2021/06/04 02:54:31;;;;;;;1.57;1.47;;;20.00;99.90;;;;;;4995834;28;20471;-79
2021/06/04 02:57:04;;;;;;;0.80;0.70;;;19.90;99.90;;;;;;4996133;28;20504;-79
2021/06/04 02:59:35;;;;;;;3.00;1.77;;;19.90;99.90;;;;;;4949516;28;20485;-79
2021/06/04 03:02:03;;;;;;;3.80;2.07;;;19.90;99.90;;;;;;4960474;29;20434;-79
2021/06/04 03:04:33;;;;;;;1.77;1.20;;;19.90;99.90;;;;;;4992932;28;20425;-78
2021/06/04 03:07:03;;;;;;;1.63;1.53;;;19.90;99.90;;;;;;4979699;28;20787;-78
2021/06/04 03:09:39;;;;;;;1.67;1.57;;;19.90;99.90;;;;;;4979479;28;20525;-79
2021/06/04 03:12:15;;;;;;;1.77;1.57;;;19.90;99.90;;;;;;4964901;28;20466;-77
2021/06/04 03:14:42;;;;;;;2.70;1.80;;;19.80;99.90;;;;;;4980158;28;20479;-79
2021/06/04 03:17:10;;;;;;;1.43;1.33;;;19.80;99.90;;;;;;4979890;28;20429;-80
2021/06/04 03:19:36;;;;;;;2.80;1.70;;;19.90;99.90;;;;;;4962358;28;20548;-79
2021/06/04 03:22:30;;;;;;;1.73;0.90;;;19.80;99.90;;;;;;4970190;28;20562;-79
2021/06/04 03:25:20;;;;;;;3.13;1.20;;;19.90;99.90;;;;;;4972696;28;20429;-79
2021/06/04 03:27:47;;;;;;;1.20;1.10;;;19.90;99.90;;;;;;4961120;28;20421;-78
2021/06/04 03:30:15;;;;;;;2.13;0.87;;;19.80;99.90;;;;;;4982559;28;20455;-78
2021/06/04 03:32:43;;;;;;;3.43;1.43;;;19.90;99.90;;;;;;4979097;28;20507;-78
2021/06/04 03:35:09;;;;;;;1.00;0.90;;;19.90;99.90;;;;;;4973930;28;20425;-79
2021/06/04 03:37:36;;;;;;;1.17;1.03;;;19.90;99.90;;;;;;4976956;28;20446;-78
2021/06/04 03:40:05;;;;;;;2.43;1.80;;;19.90;99.90;;;;;;4963983;28;20433;-79
2021/06/04 03:42:31;;;;;;;1.17;1.07;;;19.90;99.90;;;;;;4994309;28;20421;-80
2021/06/04 03:44:56;;;;;;;2.50;1.63;;;19.80;99.90;;;;;;4964000;28;20440;-80
2021/06/04 03:47:22;;;;;;;1.37;1.27;;;19.80;99.90;;;;;;4960068;28;20268;-79
2021/06/04 03:49:48;;;;;;;1.83;0.90;;;19.80;99.90;;;;;;4960208;28;20205;-79
2021/06/04 03:52:16;;;;;;;0.87;0.87;;;19.80;99.90;;;;;;4958451;28;20209;-79
2021/06/04 03:54:45;;;;;;;1.10;1.00;;;19.70;99.90;;;;;;4960122;28;20433;-78
2021/06/04 03:57:14;;;;;;;1.97;1.47;;;19.70;99.90;;;;;;4977466;28;21035;-78
2021/06/04 03:59:40;;;;;;;1.67;1.57;;;19.60;99.90;;;;;;4977596;28;20488;-79
2021/06/04 04:02:10;;;;;;;1.43;0.87;;;19.60;99.90;;;;;;4962189;28;20444;-80
2021/06/04 04:04:35;;;;;;;1.10;0.90;;;19.60;99.90;;;;;;4960251;28;20440;-80
2021/06/04 04:07:03;;;;;;;2.90;1.80;;;19.60;99.90;;;;;;4961683;28;20448;-80
2021/06/04 04:09:28;;;;;;;1.40;1.30;;;19.60;99.90;;;;;;4977084;28;20209;-80
2021/06/04 04:11:54;;;;;;;1.10;1.00;;;19.50;99.90;;;;;;4959317;28;20461;-77
2021/06/04 04:14:23;;;;;;;1.93;1.57;;;19.60;99.90;;;;;;4959450;28;20182;-79
2021/06/04 04:16:48;;;;;;;2.07;1.53;;;19.60;99.90;;;;;;4959027;28;20462;-79
2021/06/04 04:19:14;;;;;;;1.40;1.00;;;19.60;99.90;;;;;;4978166;28;20563;-79
2021/06/04 04:21:41;;;;;;;1.13;1.03;;;19.60;99.90;;;;;;4977360;28;20186;-80
2021/06/04 04:24:17;;;;;;;1.10;0.90;;;19.60;99.90;;;;;;4958504;28;20208;-78
2021/06/04 04:26:44;;;;;;;1.33;1.23;;;19.60;99.90;;;;;;4974342;28;20467;-79
2021/06/04 04:29:09;;;;;;;0.80;0.70;;;19.60;99.90;;;;;;4960766;28;20879;-79
2021/06/04 04:31:40;;;;;;;1.10;1.00;;;19.70;99.90;;;;;;4960648;28;20461;-79
2021/06/04 04:34:06;;;;;;;1.10;1.00;;;19.70;99.90;;;;;;4960378;28;20203;-80
2021/06/04 04:36:35;;;;;;;3.03;2.17;;;19.80;99.90;;;;;;4960628;28;20433;-79
2021/06/04 04:39:01;;;;;;;1.43;1.33;;;19.80;99.90;;;;;;4976852;28;20884;-79
2021/06/04 04:41:27;;;;;;;4.40;1.07;;;19.90;99.90;;;;;;4977081;28;20461;-78
2021/06/04 04:43:54;;;;;;;2.83;2.63;;;19.90;99.90;;;;;;4960455;28;20832;-79
2021/06/04 04:46:23;;;;;;;6.07;3.03;;;19.90;99.90;;;;;;4977235;28;20845;-80
2021/06/04 04:48:48;;;;;;;3.20;1.93;;;19.90;99.90;;;;;;4959847;28;20539;-79
2021/06/04 04:51:16;;;;;;;1.93;1.73;;;19.90;99.90;;;;;;4960669;28;20484;-79
2021/06/04 04:53:42;;;;;;;1.73;1.23;;;20.00;99.90;;;;;;4959194;28;20172;-80
2021/06/04 04:56:09;;;;;;;1.23;1.10;;;20.00;99.90;;;;;;4954410;28;20437;-80
2021/06/04 04:58:35;;;;;;;3.17;0.80;;;20.00;99.90;;;;;;4974904;28;20456;-79
2021/06/04 05:01:02;;;;;;;1.67;1.23;;;20.00;99.90;;;;;;4978548;28;20491;-80
2021/06/04 05:03:28;;;;;;;2.43;1.50;;;20.00;99.90;;;;;;4960453;28;20428;-79
2021/06/04 05:05:54;;;;;;;1.53;1.17;;;20.00;99.90;;;;;;4968922;28;20425;-79
2021/06/04 05:08:20;;;;;;;1.90;1.50;;;20.00;99.90;;;;;;4991569;28;21015;-80
2021/06/04 05:10:47;;;;;;;1.67;0.70;;;20.10;99.90;;;;;;4966687;28;20425;-78
2021/06/04 05:13:14;;;;;;;1.67;1.23;;;20.10;99.90;;;;;;4977665;28;20448;-80
2021/06/04 05:15:40;;;;;;;1.23;1.13;;;20.10;99.90;;;;;;4960722;28;20933;-80
2021/06/04 05:18:08;;;;;;;1.13;1.03;;;20.20;99.90;;;;;;4981175;28;20431;-80
2021/06/04 05:20:35;;;;;;;3.73;1.63;;;20.30;99.90;;;;;;4959863;28;20814;-80
2021/06/04 05:23:03;;;;;;;1.93;1.27;;;20.40;99.90;;;;;;4978783;28;20421;-78
2021/06/04 05:25:33;;;;;;;2.50;1.00;;;20.40;99.90;;;;;;4962122;28;20490;-78
2021/06/04 05:27:59;;;;;;;2.03;1.67;;;20.50;99.90;;;;;;4976635;28;20428;-79
2021/06/04 05:30:33;;;;;;;1.67;1.57;;;20.60;99.90;;;;;;4976607;28;20439;-78
2021/06/04 05:32:59;;;;;;;1.10;1.00;;;20.70;99.90;;;;;;4978134;28;20460;-79
2021/06/04 05:35:26;;;;;;;1.73;1.00;;;20.70;99.90;;;;;;4979706;28;20572;-80
2021/06/04 05:37:53;;;;;;;2.63;1.03;;;20.80;99.90;;;;;;4961575;28;20651;-79
2021/06/04 05:40:25;;;;;;;3.60;1.50;;;20.90;99.90;;;;;;4974496;28;21035;-78
2021/06/04 05:42:51;;;;;;;1.83;1.73;;;21.00;99.90;;;;;;4975755;28;20433;-79
2021/06/04 05:45:21;;;;;;;1.80;0.80;;;21.10;99.90;;;;;;4976130;28;20496;-79
2021/06/04 05:47:47;;;;;;;4.73;1.77;;;21.10;99.90;;;;;;4976480;28;20437;-80
2021/06/04 05:50:16;;;;;;;2.03;1.87;;;21.20;99.90;;;;;;4976122;28;20464;-80
2021/06/04 05:52:43;;;;;;;2.20;1.97;;;21.20;99.90;;;;;;4958514;28;20857;-80
2021/06/04 05:55:12;;;;;;;1.53;0.80;;;21.20;99.90;;;;;;4974715;28;20775;-80
2021/06/04 05:57:38;;;;;;;2.53;1.60;;;21.30;99.90;;;;;;4956425;28;21436;-79
2021/06/04 06:00:14;;;;;;;3.33;0.97;;;21.30;99.90;;;;;;4954921;28;20483;-79
2021/06/04 06:02:40;;;;;;;3.40;1.70;;;21.40;99.90;;;;;;4960157;28;20440;-79
2021/06/04 06:05:07;;;;;;;3.67;2.03;;;21.40;99.90;;;;;;4961237;28;20477;-78
2021/06/04 06:07:33;;;;;;;1.40;1.17;;;21.50;99.90;;;;;;4960656;28;20456;-79
2021/06/04 06:09:58;;;;;;;2.83;1.40;;;21.50;99.90;;;;;;4961850;28;20449;-79
2021/06/04 06:12:24;;;;;;;1.53;1.23;;;21.60;99.90;;;;;;4979351;28;20220;-80
2021/06/04 06:14:50;;;;;;;1.57;1.47;;;21.70;99.90;;;;;;4978767;28;20308;-80
2021/06/04 06:17:15;;;;;;;1.17;0.80;;;21.70;99.90;;;;;;4958869;28;20177;-80
2021/06/04 06:19:41;;;;;;;2.67;1.33;;;21.80;99.90;;;;;;4959743;28;20216;-79
2021/06/04 06:22:07;;;;;;;1.60;1.17;;;21.70;99.90;;;;;;4978859;28;20193;-79
2021/06/04 06:24:32;;;;;;;5.13;1.23;;;21.60;99.90;;;;;;4977365;28;20182;-78
2021/06/04 06:26:58;;;;;;;3.07;1.70;;;21.70;99.90;;;;;;4977231;28;20189;-78
2021/06/04 06:29:24;;;;;;;4.47;2.30;;;21.90;99.90;;;;;;4975478;28;20637;-80
2021/06/04 06:31:50;;;;;;;1.40;1.30;;;22.00;99.90;;;;;;4977883;28;20198;-79
2021/06/04 06:34:16;;;;;;;1.63;1.30;;;22.10;99.90;;;;;;4961765;28;20789;-80
2021/06/04 06:36:44;;;;;;;1.73;1.20;;;22.30;99.90;;;;;;4958947;28;20429;-80
2021/06/04 06:39:18;;;;;;;2.07;1.87;;;22.40;99.90;;;;;;4977069;28;20433;-79
2021/06/04 06:41:46;;;;;;;2.10;1.77;;;22.70;99.90;;;;;;4983470;28;20424;-79
2021/06/04 06:44:12;;;;;;;2.70;2.10;;;23.00;99.90;;;;;;4985481;28;21076;-79
2021/06/04 06:46:39;;;;;;;1.80;1.43;;;23.20;99.90;;;;;;4977802;28;20416;-80
2021/06/04 06:49:06;;;;;;;3.70;1.50;;;23.40;99.90;;;;;;4978089;28;20511;-81
2021/06/04 06:51:33;;;;;;;3.03;1.83;;;23.60;99.90;;;;;;4960784;28;20461;-79
2021/06/04 06:53:59;;;;;;;1.97;1.43;;;23.60;99.90;;;;;;4966941;28;20416;-78
2021/06/04 06:56:25;;;;;;;2.17;1.40;;;23.70;99.90;;;;;;4980454;28;20421;-79
2021/06/04 06:58:51;;;;;;;4.43;2.13;;;23.80;99.90;;;;;;4958484;28;20472;-80
2021/06/04 07:01:17;;;;;;;2.33;2.13;;;24.00;99.90;;;;;;4977587;28;20919;-79
2021/06/04 07:03:44;;;;;;;5.90;1.73;;;24.10;99.90;;;;;;4976232;28;20201;-79
2021/06/04 07:06:20;;;;;;;5.57;2.70;;;24.10;99.90;;;;;;4973843;28;20475;-80
2021/06/04 07:08:45;;;;;;;2.50;1.90;;;24.30;99.90;;;;;;4960298;28;20452;-81
2021/06/04 07:11:11;;;;;;;2.03;1.80;;;24.40;99.90;;;;;;4960482;28;20483;-81
2021/06/04 07:13:37;;;;;;;5.27;3.30;;;24.50;99.90;;;;;;4958193;28;20174;-80
2021/06/04 07:16:07;;;;;;;1.87;1.47;;;24.70;99.90;;;;;;4976158;28;20461;-80
2021/06/04 07:18:33;;;;;;;2.67;2.23;;;24.70;99.90;;;;;;4976092;28;20457;-81
2021/06/04 07:20:59;;;;;;;4.97;2.37;;;24.80;99.90;;;;;;4959069;28;20417;-81
2021/06/04 07:23:26;;;;;;;2.40;1.47;;;25.00;99.90;;;;;;4976703;28;20408;-82
2021/06/04 07:25:52;;;;;;;5.53;2.50;;;25.20;99.90;;;;;;4980641;28;20177;-80
2021/06/04 07:28:19;;;;;;;3.77;1.63;;;25.30;99.90;;;;;;4970422;28;20444;-78
2021/06/04 07:30:48;;;;;;;4.20;2.53;;;25.40;99.90;;;;;;4975657;28;20428;-80
2021/06/04 07:33:24;;;;;;;3.30;2.40;;;25.40;99.90;;;;;;4957456;28;20456;-80
2021/06/04 07:35:52;;;;;;;2.43;1.70;;;25.50;99.90;;;;;;4970132;28;20430;-79
2021/06/04 07:38:18;;;;;;;3.70;2.30;;;25.50;99.90;;;;;;4957478;28;20406;-81
2021/06/04 07:40:43;;;;;;;2.37;2.17;;;25.50;99.90;;;;;;4973474;28;20429;-80
2021/06/04 07:43:13;;;;;;;3.37;1.80;;;25.30;99.90;;;;;;4956842;28;20839;-79
2021/06/04 07:45:42;;;;;;;2.00;1.80;;;25.60;99.90;;;;;;4974620;28;20188;-82
2021/06/04 07:48:12;;;;;;;4.80;3.50;;;25.60;99.90;;;;;;4975458;28;20445;-81
2021/06/04 07:50:40;;;;;;;1.43;1.33;;;26.10;99.90;;;;;;4961526;28;20448;-81
2021/06/04 07:53:06;;;;;;;2.07;1.67;;;26.40;99.90;;;;;;4958986;28;20470;-81
2021/06/04 07:55:32;;;;;;;2.53;1.60;;;26.50;99.90;;;;;;4956062;28;20441;-80
2021/06/04 07:57:59;;;;;;;2.60;1.67;;;26.60;99.90;;;;;;4958308;28;20547;-81
2021/06/04 08:00:28;;;;;;;3.33;1.67;;;26.90;99.90;;;;;;4975352;28;20433;-79
2021/06/04 08:02:55;;;;;;;2.20;1.60;;;27.30;99.90;;;;;;4958828;28;20433;-82
2021/06/04 08:05:21;;;;;;;2.13;1.77;;;27.70;99.90;;;;;;4957569;28;20444;-83
2021/06/04 08:07:47;;;;;;;1.33;1.23;;;27.80;99.90;;;;;;4973189;28;20443;-83
2021/06/04 08:10:14;;;;;;;5.73;2.73;;;28.20;99.90;;;;;;4973168;28;20823;-83
2021/06/04 08:12:42;;;;;;;2.27;1.77;;;28.50;99.90;;;;;;4976651;28;20244;-82
2021/06/04 08:15:35;;;;;;;2.40;1.63;;;28.80;99.90;;;;;;4974286;28;20451;-82
2021/06/04 08:18:01;;;;;;;1.90;1.80;;;29.10;99.90;;;;;;4957751;28;20508;-82
2021/06/04 08:20:30;;;;;;;2.57;1.67;;;29.20;99.90;;;;;;4955334;28;20441;-83
2021/06/04 08:22:59;;;;;;;2.83;2.13;;;29.10;99.90;;;;;;4958129;28;20448;-82
2021/06/04 08:25:33;;;;;;;2.20;1.57;;;29.50;99.90;;;;;;4973658;28;20940;-82
2021/06/04 08:27:59;;;;;;;2.03;1.60;;;29.70;99.90;;;;;;4974319;28;20444;-80
2021/06/04 08:30:26;;;;;;;4.47;2.10;;;29.90;99.90;;;;;;4958829;28;20440;-80
2021/06/04 08:32:52;;;;;;;2.40;2.07;;;30.20;99.90;;;;;;4974352;28;20284;-80
2021/06/04 08:35:19;;;;;;;2.67;1.77;;;30.40;99.90;;;;;;4972558;28;20488;-82
2021/06/04 08:37:45;;;;;;;2.47;2.00;;;30.70;99.90;;;;;;4959572;28;20556;-82
2021/06/04 08:40:20;;;;;;;2.20;2.00;;;30.90;99.90;;;;;;4959410;28;20480;-82
2021/06/04 08:42:58;;;;;;;3.00;2.20;;;31.00;99.90;;;;;;4959462;28;20460;-82
2021/06/04 08:45:31;;;;;;;3.30;2.03;;;31.10;99.90;;;;;;4960065;28;20421;-82
2021/06/04 08:48:22;;;;;;;2.90;1.97;;;31.30;99.90;;;;;;4959512;28;20436;-80
2021/06/04 08:51:13;;;;;;;2.80;2.30;;;31.50;99.90;;;;;;4948018;28;20428;-80
2021/06/04 08:54:01;;;;;;;2.10;1.90;;;31.60;99.90;;;;;;4966297;28;20429;-80
2021/06/04 08:56:40;;;;;;;2.97;2.67;;;31.90;99.90;;;;;;4969025;28;20429;-80
2021/06/04 08:59:15;;;;;;;3.23;2.67;;;32.10;99.90;;;;;;4976095;28;20440;-80
2021/06/04 09:02:02;;;;;;;1.93;1.73;;;32.30;99.90;;;;;;4960517;28;20432;-79
2021/06/04 09:04:47;;;;;;;2.23;1.70;;;32.70;99.90;;;;;;4959873;28;20440;-79
2021/06/04 09:07:19;;;;;;;1.93;1.83;;;32.90;99.90;;;;;;4975619;28;20451;-79
2021/06/04 09:09:56;;;;;;;2.60;1.83;;;33.10;99.90;;;;;;4959338;28;20547;-79
2021/06/04 09:12:51;;;;;;;4.63;3.03;;;33.20;99.90;;;;;;4958521;28;20464;-80
2021/06/04 09:15:25;;;;;;;2.33;2.20;;;33.30;99.90;;;;;;4974704;28;20447;-81
2021/06/04 09:18:16;;;;;;;2.30;2.10;;;33.30;99.90;;;;;;4976390;28;20440;-84
2021/06/04 09:20:45;;;;;;;1.90;1.80;;;33.70;99.90;;;;;;4959860;28;20448;-83
2021/06/04 09:23:14;;;;;;;2.50;2.30;;;33.80;97.20;;;;;;4976844;28;20468;-83
2021/06/04 09:25:42;;;;;;;3.30;2.23;;;33.50;93.80;;;;;;4977622;28;20460;-81
2021/06/04 09:28:11;;;;;;;4.20;2.77;;;33.20;98.10;;;;;;4960390;28;20957;-82
2021/06/04 09:30:50;;;;;;;2.90;2.30;;;33.20;98.00;;;;;;4958439;28;20428;-81
2021/06/04 09:33:18;;;;;;;2.53;2.33;;;32.50;98.80;;;;;;4976887;28;20637;-82
2021/06/04 09:36:02;;;;;;;2.73;2.27;;;32.40;99.90;;;;;;4974489;28;20436;-81
2021/06/04 09:38:33;;;;;;;2.70;1.90;;;32.40;99.90;;;;;;4975200;28;20459;-81
2021/06/04 09:41:44;;;;;;;3.27;1.97;;;32.50;99.90;;;;;;4976648;28;20949;-81
2021/06/04 09:44:21;;;;;;;7.23;2.40;;;32.50;99.90;;;;;;4947186;28;20460;-81
2021/06/04 09:47:11;;;;;;;2.80;2.07;;;32.60;99.90;;;;;;4974446;28;20411;-81
2021/06/04 09:49:47;;;;;;;3.83;2.70;;;32.80;98.10;;;;;;4959768;28;20907;-81
2021/06/04 09:52:36;;;;;;;4.03;3.57;;;32.50;94.70;;;;;;4975271;28;20559;-82
2021/06/04 09:55:26;;;;;;;1.80;1.70;;;32.40;97.70;;;;;;4973258;28;20479;-83
2021/06/04 09:58:03;;;;;;;4.53;2.47;;;32.50;94.20;;;;;;4975559;28;20409;-82
2021/06/04 10:00:34;;;;;;;2.27;2.10;;;32.50;99.30;;;;;;4975907;28;20428;-81
2021/06/04 10:03:12;;;;;;;2.07;1.87;;;32.40;94.80;;;;;;4961443;28;20937;-81
2021/06/04 10:05:38;;;;;;;2.53;2.37;;;32.40;97.60;;;;;;4988914;28;20423;-81
2021/06/04 10:08:24;;;;;;;3.10;2.10;;;32.60;97.00;;;;;;4969548;28;20426;-81
2021/06/04 10:11:18;;;;;;;2.37;1.97;;;32.60;94.40;;;;;;4971323;28;20417;-82
2021/06/04 10:14:00;;;;;;;2.73;2.47;;;33.10;95.70;;;;;;4973135;28;20450;-82
2021/06/04 10:19:41;;;;;;;3.03;2.60;;;33.70;91.70;;;;;;4965464;28;20864;-81
2021/06/04 10:22:17;;;;;;;1.87;1.70;;;33.90;85.90;;;;;;4978275;28;20565;-81
2021/06/04 10:25:06;;;;;;;2.50;1.90;;;33.40;89.30;;;;;;4977613;28;20447;-81
2021/06/04 10:27:56;;;;;;;2.40;2.20;;;33.40;91.80;;;;;;4955418;28;20455;-81
2021/06/04 10:30:34;;;;;;;2.37;2.20;;;33.10;93.40;;;;;;4957939;28;20517;-82
2021/06/04 10:33:15;;;;;;;1.60;1.50;;;33.20;93.50;;;;;;4976907;28;20463;-81
2021/06/04 10:35:59;;;;;;;2.20;2.00;;;33.30;92.10;;;;;;4975986;28;20437;-81
2021/06/04 10:38:31;;;;;;;2.60;2.10;;;33.50;91.20;;;;;;4941527;29;20442;-81
2021/06/04 10:41:09;;;;;;;2.10;1.80;;;33.40;86.60;;;;;;4976059;28;20437;-81
2021/06/04 10:44:16;;;;;;;2.73;2.10;;;33.70;92.40;;;;;;4964435;28;20449;-82
2021/06/04 10:46:46;;;;;;;2.30;1.50;;;33.80;82.20;;;;;;4975671;28;20451;-82
2021/06/04 10:49:42;;;;;;;1.67;1.57;;;33.90;86.30;;;;;;4963424;28;20555;-82
2021/06/04 10:52:13;;;;;;;3.17;2.83;;;34.00;82.90;;;;;;4968150;28;20465;-82
2021/06/04 10:55:01;;;;;;;2.17;1.73;;;33.90;82.20;;;;;;4963838;28;20438;-83
2021/06/04 10:57:41;;;;;;;5.53;2.17;;;33.70;79.50;;;;;;4968472;28;20421;-82
2021/06/04 11:00:20;;;;;;;2.67;2.13;;;33.80;85.60;;;;;;4962661;28;20527;-81
2021/06/04 11:02:45;;;;;;;1.63;1.53;;;33.60;81.20;;;;;;4960783;28;20778;-82
2021/06/04 11:05:36;;;;;;;3.20;1.70;;;33.60;78.40;;;;;;4963020;28;20437;-82
2021/06/04 11:08:20;;;;;;;2.43;2.23;;;33.80;84.60;;;;;;4962110;28;20178;-82
2021/06/04 11:10:59;;;;;;;2.87;2.50;;;34.20;82.70;;;;;;4979984;28;20790;-82
2021/06/04 11:14:09;;;;;;;3.20;2.00;;;34.70;79.10;;;;;;4962379;28;20463;-83
2021/06/04 11:17:24;;;;;;;2.70;2.37;;;35.10;74.30;;;;;;4974932;28;20425;-82
2021/06/04 11:20:10;;;;;;;2.53;2.33;;;35.50;73.20;;;;;;4962058;28;20473;-83
2021/06/04 11:22:47;;;;;;;3.20;3.00;;;36.20;73.20;;;;;;4960047;28;20979;-83
2021/06/04 11:25:26;;;;;;;2.13;2.03;;;36.30;67.00;;;;;;4961565;28;20423;-84
2021/06/04 11:28:09;;;;;;;2.10;1.80;;;36.40;70.40;;;;;;4965612;28;20472;-82
2021/06/04 11:30:37;;;;;;;2.03;1.90;;;36.80;66.90;;;;;;4978976;28;20427;-83
2021/06/04 11:33:26;;;;;;;3.80;2.67;;;36.80;69.30;;;;;;4979462;28;20453;-84
2021/06/04 11:36:23;;;;;;;2.63;1.97;;;36.60;65.10;;;;;;4965004;28;20549;-83
2021/06/04 11:38:56;;;;;;;3.17;2.13;;;36.70;62.20;;;;;;4963143;28;20447;-83
2021/06/04 11:41:30;;;;;;;2.83;2.17;;;36.90;62.00;;;;;;4981167;28;20485;-84
2021/06/04 11:44:23;;;;;;;2.20;1.97;;;37.00;62.40;;;;;;4959892;28;20453;-82
2021/06/04 11:47:29;;;;;;;2.50;2.30;;;36.80;58.70;;;;;;4957914;29;20409;-82
2021/06/04 11:49:55;;;;;;;2.53;2.33;;;36.60;62.40;;;;;;4978497;28;20539;-82
2021/06/04 11:52:33;;;;;;;1.90;1.73;;;36.60;59.90;;;;;;4977908;28;20906;-82
2021/06/04 11:55:08;;;;;;;3.50;2.20;;;36.60;61.00;;;;;;4977515;28;20232;-82
2021/06/04 11:57:53;;;;;;;2.37;2.10;;;36.10;59.30;;;;;;4983781;28;20515;-82
2021/06/04 12:00:25;;;;;;;3.17;2.93;;;36.20;58.90;;;;;;4960364;28;20463;-82
2021/06/04 12:02:53;;;;;;;2.50;2.20;;;36.00;57.30;;;;;;4959856;28;20444;-82
2021/06/04 12:05:19;;;;;;;2.50;2.30;;;36.30;58.90;;;;;;4959670;28;20504;-81
2021/06/04 12:08:06;;;;;;;2.70;2.23;;;36.30;61.90;;;;;;4990056;28;20464;-81
2021/06/04 12:10:53;;;;;;;2.67;2.47;;;36.20;63.00;;;;;;4978970;28;20822;-80
2021/06/04 12:13:40;;;;;;;2.67;2.30;;;36.10;62.70;;;;;;4970225;28;20471;-81
2021/06/04 12:16:21;;;;;;;2.53;2.20;;;35.50;62.50;;;;;;4961490;28;20438;-80
2021/06/04 12:19:05;;;;;;;3.80;3.10;;;35.10;63.90;;;;;;4976159;28;20453;-80
2021/06/04 12:21:40;;;;;;;2.40;2.20;;;34.40;67.50;;;;;;4958040;28;20444;-80
2021/06/04 12:24:20;;;;;;;3.20;2.30;;;34.30;71.40;;;;;;4958988;28;20424;-80
2021/06/04 12:27:00;;;;;;;2.57;2.13;;;34.00;72.40;;;;;;4976829;28;20559;-79
2021/06/04 12:29:30;;;;;;;4.57;2.80;;;33.60;75.00;;;;;;4979042;28;20834;-80
2021/06/04 12:32:11;;;;;;;2.30;2.10;;;33.30;78.30;;;;;;4979260;28;20467;-79
2021/06/04 12:34:37;;;;;;;2.03;1.60;;;32.80;80.20;;;;;;4978829;28;20976;-79
2021/06/04 12:37:21;;;;;;;2.33;2.13;;;32.60;78.10;;;;;;4961546;28;20424;-79
2021/06/04 12:39:51;;;;;;;2.97;2.67;;;32.30;81.20;;;;;;4976065;28;20464;-79
2021/06/04 12:42:27;;;;;;;2.70;1.57;;;31.90;86.70;;;;;;4960493;28;20425;-79
2021/06/04 12:45:19;;;;;;;2.83;1.70;;;31.60;92.20;;;;;;4993824;28;20427;-79
2021/06/04 12:47:52;;;;;;;3.43;2.40;;;31.40;94.00;;;;;;4993311;28;20508;-79
2021/06/04 12:50:26;;;;;;;3.17;2.70;;;31.10;96.60;;;;;;4977878;28;20527;-80
2021/06/04 12:53:08;;;;;;;3.17;2.30;;;30.90;98.10;;;;;;4960196;28;20542;-79
2021/06/04 12:55:35;;;;;;;2.63;2.37;;;30.60;99.90;;;;;;4961504;28;20436;-79
2021/06/04 12:58:24;;;;;;;2.90;2.33;;;30.50;99.90;;;;;;4960587;28;20440;-80
2021/06/04 13:00:50;;;;;;;3.87;2.60;;;30.30;99.90;;;;;;4992760;28;20428;-80
2021/06/04 13:03:26;;;;;;;4.33;2.80;;;30.20;99.90;;;;;;4956710;28;20511;-81
2021/06/04 13:05:54;;;;;;;4.80;2.00;;;30.10;99.90;;;;;;4971408;28;20188;-80
2021/06/04 13:08:24;;;;;;;2.60;2.40;;;30.00;99.90;;;;;;4972226;28;20445;-81
2021/06/04 13:10:55;;;;;;;4.57;2.73;;;29.90;99.90;;;;;;4956966;28;20799;-80
2021/06/04 13:13:26;;;;;;;1.97;1.87;;;29.90;99.90;;;;;;4975054;28;21206;-80
2021/06/04 13:15:53;;;;;;;2.40;2.20;;;29.90;99.90;;;;;;4978402;28;20436;-79
2021/06/04 13:18:21;;;;;;;2.40;2.20;;;30.10;99.90;;;;;;4959106;28;20436;-80
2021/06/04 13:20:50;;;;;;;4.17;3.20;;;30.30;99.90;;;;;;4957301;28;20444;-80